createdAt,value
2023-05-19T00:01:48.151Z,98441.34
2023-05-19T00:04:15.303Z,98434.13
2023-05-19T00:06:42.280Z,98439.97
2023-05-19T00:09:09.914Z,98426.84
2023-05-19T00:11:37.517Z,98428.44
2023-05-19T00:14:05.925Z,98426.84
2023-05-19T00:16:32.798Z,98423.41
2023-05-19T00:19:02.629Z,98429.72
2023-05-19T00:21:29.555Z,98428.00
2023-05-19T00:23:56.170Z,98421.88
2023-05-19T00:26:23.121Z,98423.56
2023-05-19T00:28:49.921Z,98424.59
2023-05-19T00:31:16.429Z,98423.69
2023-05-19T00:33:43.140Z,98426.28
2023-05-19T00:36:09.763Z,98421.06
2023-05-19T00:38:36.691Z,98421.59
2023-05-19T00:41:03.808Z,98417.16
2023-05-19T00:43:30.439Z,98427.13
2023-05-19T00:45:57.539Z,98421.16
2023-05-19T00:48:25.126Z,98411.06
2023-05-19T00:50:52.276Z,98420.19
2023-05-19T00:53:19.235Z,98414.50
2023-05-19T00:55:45.888Z,98401.09
2023-05-19T00:58:12.418Z,98406.44
2023-05-19T01:00:39.833Z,98398.59
2023-05-19T01:03:13.037Z,98401.28
2023-05-19T01:05:44.652Z,98400.53
2023-05-19T01:08:11.181Z,98398.50
2023-05-19T01:10:37.806Z,98406.44
2023-05-19T01:13:04.721Z,98407.56
2023-05-19T01:15:33.822Z,98410.34
2023-05-19T01:18:12.929Z,98410.34
2023-05-19T01:20:42.680Z,98408.69
2023-05-19T01:23:18.385Z,98402.56
2023-05-19T01:25:58.470Z,98401.31
2023-05-19T01:28:42.258Z,98404.78
2023-05-19T01:31:09.061Z,98404.22
2023-05-19T01:33:35.638Z,98402.81
2023-05-19T01:36:03.610Z,98402.28
2023-05-19T01:38:30.367Z,98401.16
2023-05-19T01:40:56.895Z,98404.53
2023-05-19T01:43:24.911Z,98402.53
2023-05-19T01:45:51.485Z,98400.59
2023-05-19T01:48:18.198Z,98398.59
2023-05-19T01:50:44.852Z,98396.03
2023-05-19T01:53:11.498Z,98396.72
2023-05-19T01:55:44.598Z,98401.63
2023-05-19T01:58:48.040Z,98395.59
2023-05-19T02:01:20.302Z,98387.78
2023-05-19T02:04:10.048Z,98396.59
2023-05-19T02:07:12.042Z,98382.31
2023-05-19T02:09:50.604Z,98383.47
2023-05-19T02:12:25.053Z,98381.78
2023-05-19T02:15:05.178Z,98386.19
2023-05-19T02:17:33.191Z,98382.25
2023-05-19T02:20:00.020Z,98388.69
2023-05-19T02:22:26.813Z,98384.19
2023-05-19T02:24:53.391Z,98379.72
2023-05-19T02:27:19.967Z,98376.94
2023-05-19T02:29:46.499Z,98373.31
2023-05-19T02:32:13.276Z,98379.31
2023-05-19T02:34:39.883Z,98379.94
2023-05-19T02:37:07.795Z,98372.09
2023-05-19T02:39:35.303Z,98372.56
2023-05-19T02:42:01.908Z,98375.22
2023-05-19T02:44:28.547Z,98379.63
2023-05-19T02:46:55.115Z,98373.53
2023-05-19T02:49:21.657Z,98374.03
2023-05-19T02:51:48.194Z,98370.41
2023-05-19T02:54:14.720Z,98381.09
2023-05-19T02:56:41.229Z,98366.88
2023-05-19T02:59:07.824Z,98374.34
2023-05-19T03:01:34.390Z,98370.25
2023-05-19T03:04:01.113Z,98375.22
2023-05-19T03:06:28.257Z,98374.81
2023-05-19T03:08:54.753Z,98368.47
2023-05-19T03:11:23.150Z,98366.06
2023-05-19T03:13:49.730Z,98370.94
2023-05-19T03:16:16.239Z,98361.81
2023-05-19T03:18:43.019Z,98364.00
2023-05-19T03:21:09.557Z,98368.47
2023-05-19T03:23:36.328Z,98371.38
2023-05-19T03:26:03.019Z,98374.25
2023-05-19T03:28:29.654Z,98371.00
2023-05-19T03:30:56.232Z,98370.59
2023-05-19T03:33:23.953Z,98367.50
2023-05-19T03:35:50.634Z,98375.72
2023-05-19T03:38:17.148Z,98374.63
2023-05-19T03:40:44.992Z,98371.25
2023-05-19T03:43:11.649Z,98375.28
2023-05-19T03:45:38.439Z,98385.50
2023-05-19T03:48:06.004Z,98382.16
2023-05-19T03:50:34.096Z,98380.72
2023-05-19T03:53:00.958Z,98384.59
2023-05-19T03:55:29.840Z,98384.06
2023-05-19T03:57:57.099Z,98380.88
2023-05-19T04:00:23.882Z,98383.31
2023-05-19T04:02:51.213Z,98381.72
2023-05-19T04:05:17.917Z,98384.59
2023-05-19T04:07:46.611Z,98386.97
2023-05-19T04:10:13.227Z,98389.00
2023-05-19T04:12:39.852Z,98386.34
2023-05-19T04:15:06.976Z,98385.69
2023-05-19T04:17:33.612Z,98388.72
2023-05-19T04:20:00.352Z,98387.47
2023-05-19T04:22:26.858Z,98385.66
2023-05-19T04:24:53.407Z,98393.50
2023-05-19T04:27:19.999Z,98386.78
2023-05-19T04:29:48.211Z,98380.63
2023-05-19T04:32:17.595Z,98377.13
2023-05-19T04:34:46.395Z,98379.41
2023-05-19T04:37:14.126Z,98382.06
2023-05-19T04:39:45.132Z,98370.03
2023-05-19T04:42:11.861Z,98371.47
2023-05-19T04:44:40.159Z,98376.19
2023-05-19T04:47:10.287Z,98379.50
2023-05-19T04:49:39.895Z,98384.47
2023-05-19T04:52:07.545Z,98383.16
2023-05-19T04:54:37.667Z,98386.72
2023-05-19T04:57:04.489Z,98386.19
2023-05-19T04:59:31.179Z,98376.94
2023-05-19T05:01:57.939Z,98377.94
2023-05-19T05:04:24.567Z,98377.72
2023-05-19T05:06:51.304Z,98384.00
2023-05-19T05:09:17.863Z,98378.09
2023-05-19T05:11:44.710Z,98373.56
2023-05-19T05:14:11.494Z,98374.78
2023-05-19T05:16:38.345Z,98378.06
2023-05-19T05:19:05.228Z,98370.09
2023-05-19T05:21:32.002Z,98370.63
2023-05-19T05:23:58.731Z,98365.34
2023-05-19T05:26:26.479Z,98367.41
2023-05-19T05:28:53.025Z,98365.69
2023-05-19T05:31:19.602Z,98362.94
2023-05-19T05:33:46.209Z,98361.91
2023-05-19T05:36:13.656Z,98364.94
2023-05-19T05:38:40.219Z,98374.28
2023-05-19T05:41:06.860Z,98364.63
2023-05-19T05:43:33.433Z,98372.28
2023-05-19T05:46:00.246Z,98369.28
2023-05-19T05:48:27.312Z,98367.03
2023-05-19T05:50:54.544Z,98365.97
2023-05-19T05:53:21.448Z,98367.69
2023-05-19T05:55:48.276Z,98370.66
2023-05-19T05:58:14.989Z,98370.72
2023-05-19T06:00:45.277Z,98366.72
2023-05-19T06:03:12.067Z,98364.09
2023-05-19T06:05:39.146Z,98360.63
2023-05-19T06:08:06.053Z,98356.44
2023-05-19T06:10:33.270Z,98352.75
2023-05-19T06:13:00.117Z,98356.78
2023-05-19T06:15:26.814Z,98351.63
2023-05-19T06:17:54.627Z,98355.13
2023-05-19T06:20:21.341Z,98357.13
2023-05-19T06:22:47.894Z,98350.47
2023-05-19T06:25:14.519Z,98338.94
2023-05-19T06:27:41.044Z,98346.28
2023-05-19T06:30:08.636Z,98352.28
2023-05-19T06:32:35.329Z,98355.44
2023-05-19T06:35:02.010Z,98355.59
2023-05-19T06:37:28.527Z,98355.13
2023-05-19T06:39:55.387Z,98356.41
2023-05-19T06:42:22.702Z,98355.78
2023-05-19T06:44:49.913Z,98349.78
2023-05-19T06:47:17.037Z,98350.75
2023-05-19T06:49:44.531Z,98353.16
2023-05-19T06:52:11.497Z,98354.38
2023-05-19T06:54:38.150Z,98354.69
2023-05-19T06:57:04.874Z,98350.59
2023-05-19T06:59:31.479Z,98358.63
2023-05-19T07:01:58.134Z,98350.38
2023-05-19T07:04:24.717Z,98354.06
2023-05-19T07:06:51.274Z,98358.47
2023-05-19T07:09:17.844Z,98347.97
2023-05-19T07:11:44.978Z,98342.19
2023-05-19T07:14:11.504Z,98338.66
2023-05-19T07:16:38.084Z,98341.56
2023-05-19T07:19:04.696Z,98346.75
2023-05-19T07:21:31.450Z,98332.44
2023-05-19T07:23:57.970Z,98338.94
2023-05-19T07:26:24.466Z,98336.63
2023-05-19T07:28:51.847Z,98334.25
2023-05-19T07:31:18.558Z,98334.47
2023-05-19T07:33:45.177Z,98338.44
2023-05-19T07:36:11.822Z,98335.97
2023-05-19T07:38:38.473Z,98336.16
2023-05-19T07:41:04.994Z,98332.13
2023-05-19T07:43:31.761Z,98333.94
2023-05-19T07:45:58.544Z,98331.69
2023-05-19T07:48:25.952Z,98331.66
2023-05-19T07:50:52.746Z,98328.31
2023-05-19T07:53:20.471Z,98328.16
2023-05-19T07:55:46.999Z,98328.78
2023-05-19T07:58:13.525Z,98317.44
2023-05-19T08:00:42.988Z,98318.00
2023-05-19T08:03:09.979Z,98317.25
2023-05-19T08:05:36.697Z,98323.13
2023-05-19T08:08:03.654Z,98316.88
2023-05-19T08:10:30.466Z,98321.09
2023-05-19T08:12:57.055Z,98313.50
2023-05-19T08:15:23.704Z,98314.88
2023-05-19T08:17:50.265Z,98319.06
2023-05-19T08:20:16.828Z,98316.28
2023-05-19T08:22:43.447Z,98314.28
2023-05-19T08:25:10.311Z,98315.50
2023-05-19T08:27:36.855Z,98314.38
2023-05-19T08:30:03.497Z,98313.56
2023-05-19T08:32:30.071Z,98297.47
2023-05-19T08:34:56.633Z,98310.50
2023-05-19T08:37:23.258Z,98308.03
2023-05-19T08:39:49.813Z,98300.09
2023-05-19T08:42:16.343Z,98306.81
2023-05-19T08:44:44.011Z,98296.94
2023-05-19T08:47:13.840Z,98297.09
2023-05-19T08:49:46.711Z,98292.88
2023-05-19T08:52:33.102Z,98283.41
2023-05-19T08:55:05.920Z,98275.72
2023-05-19T08:57:32.912Z,98278.16
2023-05-19T08:59:59.672Z,98266.75
2023-05-19T09:02:26.546Z,98268.97
2023-05-19T09:04:53.187Z,98269.28
2023-05-19T09:07:19.746Z,98269.41
2023-05-19T09:09:46.574Z,98266.47
2023-05-19T09:12:13.595Z,98263.25
2023-05-19T09:14:40.333Z,98273.50
2023-05-19T09:17:07.116Z,98268.81
2023-05-19T09:19:33.819Z,98267.53
2023-05-19T09:22:01.246Z,98270.34
2023-05-19T09:24:28.036Z,98268.94
2023-05-19T09:26:59.898Z,98271.00
2023-05-19T09:29:26.888Z,98261.22
2023-05-19T09:31:54.781Z,98257.66
2023-05-19T09:34:22.280Z,98264.94
2023-05-19T09:36:53.369Z,98260.19
2023-05-19T09:39:21.235Z,98260.13
2023-05-19T09:41:47.952Z,98254.06
2023-05-19T09:44:28.784Z,98259.84
2023-05-19T09:46:55.396Z,98249.19
2023-05-19T09:49:25.789Z,98250.66
2023-05-19T09:51:57.233Z,98251.47
2023-05-19T09:54:24.335Z,98244.06
2023-05-19T09:57:01.129Z,98242.66
2023-05-19T09:59:30.663Z,98242.47
2023-05-19T10:01:59.957Z,98243.53
2023-05-19T10:04:27.465Z,98240.84
2023-05-19T10:06:54.874Z,98227.69
2023-05-19T10:09:25.297Z,98236.38
2023-05-19T10:11:53.099Z,98237.97
2023-05-19T10:14:24.578Z,98232.59
2023-05-19T10:16:52.284Z,98235.69
2023-05-19T10:19:23.160Z,98238.75
2023-05-19T10:21:49.996Z,98235.38
2023-05-19T10:24:16.529Z,98235.91
2023-05-19T10:27:07.432Z,98227.13
2023-05-19T10:29:36.570Z,98232.72
2023-05-19T10:32:06.928Z,98224.84
2023-05-19T10:35:03.914Z,98225.00
2023-05-19T10:37:36.746Z,98223.44
2023-05-19T10:40:17.119Z,98209.09
2023-05-19T10:43:21.224Z,98198.00
2023-05-19T10:45:49.264Z,98202.44
2023-05-19T10:48:16.698Z,98200.59
2023-05-19T10:50:46.840Z,98192.88
2023-05-19T10:53:18.174Z,98196.94
2023-05-19T10:55:59.637Z,98193.19
2023-05-19T10:58:39.799Z,98198.31
2023-05-19T11:01:17.382Z,98200.91
2023-05-19T11:04:14.831Z,98207.19
2023-05-19T11:06:41.796Z,98202.53
2023-05-19T11:09:11.429Z,98199.53
2023-05-19T11:11:48.297Z,98194.81
2023-05-19T11:14:23.101Z,98186.53
2023-05-19T11:16:51.046Z,98185.09
2023-05-19T11:19:32.429Z,98176.69
2023-05-19T11:22:08.649Z,98172.34
2023-05-19T11:24:52.262Z,98164.19
2023-05-19T11:27:24.471Z,98172.50
2023-05-19T11:29:51.757Z,98170.94
2023-05-19T11:32:18.516Z,98169.03
2023-05-19T11:34:45.866Z,98171.47
2023-05-19T11:37:12.385Z,98178.53
2023-05-19T11:39:39.583Z,98170.78
2023-05-19T11:42:06.503Z,98165.19
2023-05-19T11:44:33.043Z,98167.66
2023-05-19T11:47:00.169Z,98157.22
2023-05-19T11:49:29.438Z,98166.72
2023-05-19T11:51:56.290Z,98168.38
2023-05-19T11:54:29.302Z,98153.66
2023-05-19T11:56:56.410Z,98162.31
2023-05-19T11:59:35.450Z,98159.44
2023-05-19T12:02:24.824Z,98170.56
2023-05-19T12:04:51.813Z,98174.09
2023-05-19T12:07:19.479Z,98170.38
2023-05-19T12:09:46.659Z,98171.00
2023-05-19T12:12:17.047Z,98159.66
2023-05-19T12:14:43.671Z,98168.38
2023-05-19T12:17:13.988Z,98168.06
2023-05-19T12:19:41.560Z,98151.25
2023-05-19T12:22:08.288Z,98153.31
2023-05-19T12:24:35.627Z,98152.97
2023-05-19T12:27:13.670Z,98148.06
2023-05-19T12:29:40.313Z,98144.50
2023-05-19T12:32:10.202Z,98139.50
2023-05-19T12:34:37.956Z,98140.50
2023-05-19T12:37:07.269Z,98130.75
2023-05-19T12:39:33.906Z,98138.44
2023-05-19T12:42:04.661Z,98132.59
2023-05-19T12:44:31.524Z,98138.97
2023-05-19T12:46:59.525Z,98127.38
2023-05-19T12:49:26.228Z,98121.53
2023-05-19T12:51:53.878Z,98127.72
2023-05-19T12:54:23.253Z,98121.69
2023-05-19T12:56:53.282Z,98123.56
2023-05-19T12:59:37.421Z,98121.78
2023-05-19T13:02:04.883Z,98129.75
2023-05-19T13:04:31.605Z,98121.25
2023-05-19T13:06:58.139Z,98129.41
2023-05-19T13:09:24.725Z,98125.25
2023-05-19T13:11:52.207Z,98113.84
2023-05-19T13:14:18.742Z,98124.38
2023-05-19T13:16:48.658Z,98112.13
2023-05-19T13:19:24.858Z,98123.22
2023-05-19T13:21:52.496Z,98115.50
2023-05-19T13:24:19.070Z,98114.19
2023-05-19T13:26:45.640Z,98107.97
2023-05-19T13:29:12.199Z,98108.72
2023-05-19T13:31:38.912Z,98099.13
2023-05-19T13:34:05.607Z,98101.56
2023-05-19T13:36:33.381Z,98098.53
2023-05-19T13:39:00.840Z,98088.69
2023-05-19T13:41:29.265Z,98094.59
2023-05-19T13:44:01.809Z,98097.41
2023-05-19T13:46:40.623Z,98104.69
2023-05-19T13:49:11.124Z,98102.06
2023-05-19T13:51:37.733Z,98099.09
2023-05-19T13:54:04.970Z,98096.50
2023-05-19T13:56:31.854Z,98087.56
2023-05-19T13:58:58.470Z,98080.88
2023-05-19T14:01:25.166Z,98089.19
2023-05-19T14:03:52.543Z,98093.19
2023-05-19T14:06:19.590Z,98089.94
2023-05-19T14:08:46.110Z,98082.59
2023-05-19T14:11:19.891Z,98075.66
2023-05-19T14:13:52.764Z,98066.78
2023-05-19T14:16:20.437Z,98066.63
2023-05-19T14:18:47.057Z,98080.09
2023-05-19T14:21:13.897Z,98077.44
2023-05-19T14:23:40.479Z,98073.00
2023-05-19T14:26:07.407Z,98076.56
2023-05-19T14:28:33.994Z,98073.94
2023-05-19T14:31:00.692Z,98076.34
2023-05-19T14:33:27.204Z,98073.88
2023-05-19T14:35:53.808Z,98066.16
2023-05-19T14:38:20.433Z,98062.53
2023-05-19T14:40:48.432Z,98068.97
2023-05-19T14:43:14.984Z,98065.19
2023-05-19T14:45:44.215Z,98074.53
2023-05-19T14:48:11.825Z,98066.03
2023-05-19T14:50:38.690Z,98072.31
2023-05-19T14:53:05.431Z,98071.38
2023-05-19T14:55:32.177Z,98066.59
2023-05-19T14:57:58.802Z,98068.53
2023-05-19T15:00:28.534Z,98065.69
2023-05-19T15:02:55.169Z,98071.75
2023-05-19T15:05:23.975Z,98080.66
2023-05-19T15:07:50.723Z,98071.84
2023-05-19T15:10:19.835Z,98076.16
2023-05-19T15:12:46.827Z,98083.31
2023-05-19T15:15:14.273Z,98078.09
2023-05-19T15:17:40.982Z,98075.03
2023-05-19T15:20:07.911Z,98076.19
2023-05-19T15:22:34.617Z,98071.38
2023-05-19T15:25:01.231Z,98071.44
2023-05-19T15:27:27.772Z,98073.09
2023-05-19T15:29:54.348Z,98074.38
2023-05-19T15:32:20.932Z,98069.81
2023-05-19T15:34:47.588Z,98069.81
2023-05-19T15:37:14.136Z,98065.47
2023-05-19T15:39:40.694Z,98058.59
2023-05-19T15:42:07.181Z,98063.63
2023-05-19T15:44:33.712Z,98062.44
2023-05-19T15:47:00.379Z,98065.75
2023-05-19T15:49:26.887Z,98066.88
2023-05-19T15:51:53.450Z,98066.34
2023-05-19T15:54:20.045Z,98064.53
2023-05-19T15:56:46.556Z,98066.03
2023-05-19T15:59:13.416Z,98071.81
2023-05-19T16:01:40.024Z,98066.38
2023-05-19T16:04:06.758Z,98064.34
2023-05-19T16:06:33.331Z,98057.91
2023-05-19T16:08:59.889Z,98045.91
2023-05-19T16:11:26.747Z,98049.97
2023-05-19T16:13:53.389Z,98055.06
2023-05-19T16:16:20.016Z,98048.84
2023-05-19T16:18:46.601Z,98051.59
2023-05-19T16:21:13.289Z,98053.09
2023-05-19T16:23:39.816Z,98053.81
2023-05-19T16:26:06.337Z,98050.09
2023-05-19T16:28:32.932Z,98047.81
2023-05-19T16:31:00.141Z,98041.06
2023-05-19T16:33:27.309Z,98050.97
2023-05-19T16:35:53.912Z,98034.78
2023-05-19T16:38:20.545Z,98045.97
2023-05-19T16:40:47.081Z,98044.34
2023-05-19T16:43:13.604Z,98050.81
2023-05-19T16:45:40.179Z,98040.00
2023-05-19T16:48:06.738Z,98044.50
2023-05-19T16:50:33.494Z,98042.84
2023-05-19T16:53:00.156Z,98041.13
2023-05-19T16:55:26.817Z,98042.31
2023-05-19T16:57:53.402Z,98036.50
2023-05-19T17:00:20.111Z,98028.91
2023-05-19T17:02:46.820Z,98032.22
2023-05-19T17:05:13.500Z,98019.66
2023-05-19T17:07:40.102Z,98025.72
2023-05-19T17:10:08.384Z,98024.09
2023-05-19T17:12:34.960Z,98031.56
2023-05-19T17:15:01.501Z,98032.38
2023-05-19T17:17:28.205Z,98032.78
2023-05-19T17:19:54.906Z,98029.91
2023-05-19T17:22:21.479Z,98033.59
2023-05-19T17:24:48.120Z,98031.53
2023-05-19T17:27:15.291Z,98031.34
2023-05-19T17:29:41.911Z,98034.00
2023-05-19T17:32:08.534Z,98035.06
2023-05-19T17:34:35.197Z,98032.38
2023-05-19T17:37:01.782Z,98037.94
2023-05-19T17:39:28.304Z,98042.28
2023-05-19T17:41:54.908Z,98039.38
2023-05-19T17:44:21.494Z,98043.94
2023-05-19T17:46:48.168Z,98044.34
2023-05-19T17:49:15.368Z,98048.03
2023-05-19T17:51:42.147Z,98043.91
2023-05-19T17:54:08.859Z,98042.22
2023-05-19T17:56:35.388Z,98044.47
2023-05-19T17:59:02.211Z,98042.59
2023-05-19T18:01:28.939Z,98045.91
2023-05-19T18:03:55.997Z,98043.34
2023-05-19T18:06:23.203Z,98035.91
2023-05-19T18:08:51.505Z,98033.41
2023-05-19T18:11:18.505Z,98037.50
2023-05-19T18:13:45.105Z,98043.25
2023-05-19T18:16:11.809Z,98035.88
2023-05-19T18:18:41.071Z,98054.00
2023-05-19T18:21:07.657Z,98050.84
2023-05-19T18:23:34.202Z,98047.75
2023-05-19T18:26:00.917Z,98042.75
2023-05-19T18:28:29.625Z,98041.09
2023-05-19T18:31:03.928Z,98049.09
2023-05-19T18:33:31.306Z,98049.31
2023-05-19T18:35:58.181Z,98050.28
2023-05-19T18:38:24.814Z,98043.84
2023-05-19T18:40:51.485Z,98040.31
2023-05-19T18:43:21.175Z,98041.72
2023-05-19T18:45:47.993Z,98047.28
2023-05-19T18:48:15.409Z,98041.72
2023-05-19T18:50:44.032Z,98047.06
2023-05-19T18:53:11.632Z,98030.91
2023-05-19T18:55:38.620Z,98046.97
2023-05-19T18:58:06.052Z,98048.16
2023-05-19T19:00:33.127Z,98050.66
2023-05-19T19:03:00.034Z,98050.91
2023-05-19T19:05:26.626Z,98047.78
2023-05-19T19:07:53.381Z,98058.03
2023-05-19T19:10:20.017Z,98051.84
2023-05-19T19:12:46.649Z,98052.44
2023-05-19T19:15:13.246Z,98054.69
2023-05-19T19:17:42.368Z,98059.13
2023-05-19T19:20:09.331Z,98059.97
2023-05-19T19:22:36.012Z,98056.09
2023-05-19T19:25:02.539Z,98066.91
2023-05-19T19:27:31.229Z,98064.00
2023-05-19T19:29:58.680Z,98064.16
2023-05-19T19:32:25.640Z,98065.59
2023-05-19T19:34:55.095Z,98063.44
2023-05-19T19:37:21.700Z,98069.66
2023-05-19T19:39:48.215Z,98066.81
2023-05-19T19:42:14.810Z,98066.81
2023-05-19T19:44:41.419Z,98065.78
2023-05-19T19:47:08.022Z,98067.91
2023-05-19T19:49:34.923Z,98071.00
2023-05-19T19:52:01.549Z,98067.69
2023-05-19T19:54:28.667Z,98065.13
2023-05-19T19:56:55.191Z,98068.84
2023-05-19T19:59:21.841Z,98066.81
2023-05-19T20:01:48.453Z,98067.00
2023-05-19T20:04:15.409Z,98062.22
2023-05-19T20:06:42.166Z,98065.91
2023-05-19T20:09:08.740Z,98061.84
2023-05-19T20:11:35.287Z,98066.75
2023-05-19T20:14:01.906Z,98067.97
2023-05-19T20:16:28.724Z,98060.19
2023-05-19T20:18:55.401Z,98063.50
2023-05-19T20:21:22.050Z,98063.69
2023-05-19T20:23:50.379Z,98060.56
2023-05-19T20:26:17.463Z,98066.16
2023-05-19T20:28:44.084Z,98066.28
2023-05-19T20:31:10.688Z,98068.22
2023-05-19T20:33:37.265Z,98067.16
2023-05-19T20:36:05.538Z,98071.91
2023-05-19T20:38:32.077Z,98063.84
2023-05-19T20:40:58.634Z,98060.75
2023-05-19T20:43:25.259Z,98066.38
2023-05-19T20:45:52.234Z,98059.94
2023-05-19T20:48:18.848Z,98063.84
2023-05-19T20:50:45.763Z,98061.59
2023-05-19T20:53:12.287Z,98059.94
2023-05-19T20:55:39.009Z,98056.03
2023-05-19T20:58:05.779Z,98058.91
2023-05-19T21:00:32.641Z,98051.91
2023-05-19T21:02:59.677Z,98059.72
2023-05-19T21:05:26.321Z,98050.63
2023-05-19T21:07:52.910Z,98053.41
2023-05-19T21:10:19.480Z,98051.75
2023-05-19T21:12:46.775Z,98041.88
2023-05-19T21:15:13.377Z,98048.88
2023-05-19T21:17:39.981Z,98050.94
2023-05-19T21:20:07.132Z,98047.53
2023-05-19T21:22:35.599Z,98054.28
2023-05-19T21:25:02.163Z,98052.63
2023-05-19T21:27:28.801Z,98059.63
2023-05-19T21:29:55.476Z,98059.16
2023-05-19T21:32:22.048Z,98058.72
2023-05-19T21:34:48.665Z,98054.50
2023-05-19T21:37:17.226Z,98052.56
2023-05-19T21:39:44.091Z,98052.75
2023-05-19T21:42:10.646Z,98056.44
2023-05-19T21:44:37.188Z,98060.22
2023-05-19T21:47:03.772Z,98052.56
2023-05-19T21:49:31.311Z,98061.59
2023-05-19T21:51:58.104Z,98065.97
2023-05-19T21:54:24.652Z,98054.59
2023-05-19T21:56:51.240Z,98060.59
2023-05-19T21:59:17.765Z,98057.63
2023-05-19T22:01:44.478Z,98054.78
2023-05-19T22:04:11.516Z,98058.84
2023-05-19T22:06:38.135Z,98051.66
2023-05-19T22:09:04.685Z,98056.44
2023-05-19T22:11:31.426Z,98057.63
2023-05-19T22:13:57.997Z,98056.09
2023-05-19T22:16:24.600Z,98052.28
2023-05-19T22:18:51.664Z,98055.72
2023-05-19T22:21:18.188Z,98047.31
2023-05-19T22:23:44.780Z,98048.50
2023-05-19T22:26:11.357Z,98055.06
2023-05-19T22:28:37.867Z,98048.50
2023-05-19T22:31:04.536Z,98043.09
2023-05-19T22:33:31.211Z,98042.31
2023-05-19T22:35:57.893Z,98033.66
2023-05-19T22:38:24.401Z,98032.38
2023-05-19T22:40:51.006Z,98028.41
2023-05-19T22:43:17.596Z,98028.09
2023-05-19T22:45:44.175Z,98021.75
2023-05-19T22:48:11.516Z,98021.47
2023-05-19T22:50:38.193Z,98017.41
2023-05-19T22:53:04.712Z,98015.75
2023-05-19T22:55:31.527Z,98021.09
2023-05-19T22:57:58.252Z,98025.16
2023-05-19T23:00:24.768Z,98019.19
2023-05-19T23:02:51.350Z,98021.47
2023-05-19T23:05:17.885Z,98028.66
2023-05-19T23:07:44.446Z,98035.78
2023-05-19T23:10:11.186Z,98025.16
2023-05-19T23:12:37.705Z,98020.63
2023-05-19T23:15:04.660Z,98022.22
2023-05-19T23:17:31.289Z,98027.94
2023-05-19T23:19:57.835Z,98016.41
2023-05-19T23:22:24.399Z,98015.97
2023-05-19T23:24:51.113Z,98013.56
2023-05-19T23:27:17.633Z,98006.56
2023-05-19T23:29:50.442Z,98009.94
2023-05-19T23:32:17.063Z,98005.25
2023-05-19T23:34:43.640Z,98002.31
2023-05-19T23:37:10.203Z,98001.56
2023-05-19T23:39:38.226Z,98000.53
2023-05-19T23:42:05.722Z,97999.53
2023-05-19T23:44:32.317Z,97998.22
2023-05-19T23:46:59.035Z,97993.06
2023-05-19T23:49:25.611Z,97991.69
2023-05-19T23:51:52.225Z,97999.63
2023-05-19T23:54:18.808Z,97994.66
2023-05-19T23:56:45.373Z,97999.44
2023-05-19T23:59:11.886Z,97999.25
